Anna Maria, Florida
Current Conditions -  °F | °C
As of 8:53 AM on Friday 24 Oct 2014 (Local Time) from KSRQ Reporting Station
Clear Clear  
Wind Chill: 66°   Ceiling: Unl
Heat Index: 66°   Visibility: 10mi
Dew Point: 58°   Wind: 10mph
Humidity: 75%   Direction: 30°NNE
Pressure: 29.97"   Gusts: NA
Location:  27.53°N, 82.73°W
Report Text: KSRQ 241253Z 03009KT 10SM CLR 19/14 A2997 RMK AO2 SLP148 T01890144
Loading
Personal Weather Stations






























Interactive Weather Map
Tropical Storm Tracking
New forecast layout! Learn more

10-Day Weather Forecast

Advertisements
Track Severe Weather on mobile